sensor_id;sensor_type;location;lat;lon;timestamp;temperature;humidity
6256;DHT22;3161;48.794;9.784;2022-07-01T00:00:51;15.60;99.90
6256;DHT22;3161;48.794;9.784;2022-07-01T00:03:19;15.60;99.90
6256;DHT22;3161;48.794;9.784;2022-07-01T00:05:47;15.50;99.90
6256;DHT22;3161;48.794;9.784;2022-07-01T00:08:14;15.50;99.90
6256;DHT22;3161;48.794;9.784;2022-07-01T00:10:42;15.50;99.90
6256;DHT22;3161;48.794;9.784;2022-07-01T00:13:09;15.50;99.90
6256;DHT22;3161;48.794;9.784;2022-07-01T00:15:37;15.40;99.90
6256;DHT22;3161;48.794;9.784;2022-07-01T00:18:05;15.40;99.90
6256;DHT22;3161;48.794;9.784;2022-07-01T00:20:32;15.40;99.90
6256;DHT22;3161;48.794;9.784;2022-07-01T00:23:00;15.30;99.90
6256;DHT22;3161;48.794;9.784;2022-07-01T00:25:27;15.30;99.90
6256;DHT22;3161;48.794;9.784;2022-07-01T00:27:55;15.30;99.90
6256;DHT22;3161;48.794;9.784;2022-07-01T00:30:23;15.20;99.90
6256;DHT22;3161;48.794;9.784;2022-07-01T00:32:50;15.20;99.90
6256;DHT22;3161;48.794;9.784;2022-07-01T00:35:19;15.20;99.90
6256;DHT22;3161;48.794;9.784;2022-07-01T00:37:47;15.10;99.90
6256;DHT22;3161;48.794;9.784;2022-07-01T00:40:14;15.20;99.90
6256;DHT22;3161;48.794;9.784;2022-07-01T00:42:42;15.10;99.90
6256;DHT22;3161;48.794;9.784;2022-07-01T00:45:11;15.10;99.90
6256;DHT22;3161;48.794;9.784;2022-07-01T00:47:40;15.10;99.90
6256;DHT22;3161;48.794;9.784;2022-07-01T00:50:14;15.10;99.90
6256;DHT22;3161;48.794;9.784;2022-07-01T00:52:43;15.00;99.90
6256;DHT22;3161;48.794;9.784;2022-07-01T00:55:13;15.00;99.90
6256;DHT22;3161;48.794;9.784;2022-07-01T00:57:42;15.00;99.90
6256;DHT22;3161;48.794;9.784;2022-07-01T01:00:17;14.90;99.90
6256;DHT22;3161;48.794;9.784;2022-07-01T01:02:42;14.90;99.90
6256;DHT22;3161;48.794;9.784;2022-07-01T01:05:10;14.80;99.90
6256;DHT22;3161;48.794;9.784;2022-07-01T01:07:38;14.80;99.90
6256;DHT22;3161;48.794;9.784;2022-07-01T01:10:06;14.80;99.90
6256;DHT22;3161;48.794;9.784;2022-07-01T01:12:34;14.70;99.90
6256;DHT22;3161;48.794;9.784;2022-07-01T01:15:03;14.70;99.90
6256;DHT22;3161;48.794;9.784;2022-07-01T01:17:31;14.60;99.90
6256;DHT22;3161;48.794;9.784;2022-07-01T01:19:59;14.60;99.90
6256;DHT22;3161;48.794;9.784;2022-07-01T01:22:26;14.60;99.90
6256;DHT22;3161;48.794;9.784;2022-07-01T01:24:54;14.50;99.90
6256;DHT22;3161;48.794;9.784;2022-07-01T01:27:21;14.50;99.90
6256;DHT22;3161;48.794;9.784;2022-07-01T01:29:49;14.40;99.90
6256;DHT22;3161;48.794;9.784;2022-07-01T01:32:16;14.20;99.90
6256;DHT22;3161;48.794;9.784;2022-07-01T01:34:44;14.20;99.90
6256;DHT22;3161;48.794;9.784;2022-07-01T01:37:12;14.10;99.90
6256;DHT22;3161;48.794;9.784;2022-07-01T01:39:39;14.00;99.90
6256;DHT22;3161;48.794;9.784;2022-07-01T01:42:07;14.00;99.90
6256;DHT22;3161;48.794;9.784;2022-07-01T01:44:35;13.90;99.90
6256;DHT22;3161;48.794;9.784;2022-07-01T01:47:03;13.90;99.90
6256;DHT22;3161;48.794;9.784;2022-07-01T01:49:31;13.90;99.90
6256;DHT22;3161;48.794;9.784;2022-07-01T01:51:59;13.90;99.90
6256;DHT22;3161;48.794;9.784;2022-07-01T01:54:27;13.90;99.90
6256;DHT22;3161;48.794;9.784;2022-07-01T01:56:55;13.80;99.90
6256;DHT22;3161;48.794;9.784;2022-07-01T01:59:22;13.80;99.90
6256;DHT22;3161;48.794;9.784;2022-07-01T02:01:50;13.80;99.90
6256;DHT22;3161;48.794;9.784;2022-07-01T02:04:18;13.80;99.90
6256;DHT22;3161;48.794;9.784;2022-07-01T02:06:45;13.80;99.90
6256;DHT22;3161;48.794;9.784;2022-07-01T02:09:14;13.30;99.90
6256;DHT22;3161;48.794;9.784;2022-07-01T02:11:41;13.80;99.90
6256;DHT22;3161;48.794;9.784;2022-07-01T02:14:09;13.80;99.90
6256;DHT22;3161;48.794;9.784;2022-07-01T02:16:36;13.80;99.90
6256;DHT22;3161;48.794;9.784;2022-07-01T02:19:04;13.80;99.90
6256;DHT22;3161;48.794;9.784;2022-07-01T02:21:31;13.80;99.90
6256;DHT22;3161;48.794;9.784;2022-07-01T02:23:59;13.80;99.90
6256;DHT22;3161;48.794;9.784;2022-07-01T02:26:26;13.80;99.90
6256;DHT22;3161;48.794;9.784;2022-07-01T02:28:54;13.80;99.90
6256;DHT22;3161;48.794;9.784;2022-07-01T02:31:21;13.80;99.90
6256;DHT22;3161;48.794;9.784;2022-07-01T02:33:49;13.80;99.90
6256;DHT22;3161;48.794;9.784;2022-07-01T02:36:17;13.80;99.90
6256;DHT22;3161;48.794;9.784;2022-07-01T02:38:44;13.80;99.90
6256;DHT22;3161;48.794;9.784;2022-07-01T02:41:12;13.80;99.90
6256;DHT22;3161;48.794;9.784;2022-07-01T02:43:39;13.80;99.90
6256;DHT22;3161;48.794;9.784;2022-07-01T02:46:07;13.80;99.90
6256;DHT22;3161;48.794;9.784;2022-07-01T02:48:34;13.80;99.90
6256;DHT22;3161;48.794;9.784;2022-07-01T02:51:02;13.80;99.90
6256;DHT22;3161;48.794;9.784;2022-07-01T02:53:30;13.80;99.90
6256;DHT22;3161;48.794;9.784;2022-07-01T02:55:57;13.80;99.90
6256;DHT22;3161;48.794;9.784;2022-07-01T02:58:25;13.80;99.90
6256;DHT22;3161;48.794;9.784;2022-07-01T03:00:53;13.90;99.90
6256;DHT22;3161;48.794;9.784;2022-07-01T03:03:20;13.90;99.90
6256;DHT22;3161;48.794;9.784;2022-07-01T03:05:48;13.90;99.90
6256;DHT22;3161;48.794;9.784;2022-07-01T03:08:15;13.90;99.90
6256;DHT22;3161;48.794;9.784;2022-07-01T03:10:43;13.90;99.90
6256;DHT22;3161;48.794;9.784;2022-07-01T03:13:10;14.00;99.90
6256;DHT22;3161;48.794;9.784;2022-07-01T03:15:38;14.00;99.90
6256;DHT22;3161;48.794;9.784;2022-07-01T03:18:05;14.10;99.90
6256;DHT22;3161;48.794;9.784;2022-07-01T03:20:33;14.10;99.90
6256;DHT22;3161;48.794;9.784;2022-07-01T03:23:00;14.30;99.90
6256;DHT22;3161;48.794;9.784;2022-07-01T03:25:28;14.30;99.90
6256;DHT22;3161;48.794;9.784;2022-07-01T03:27:55;14.30;99.90
6256;DHT22;3161;48.794;9.784;2022-07-01T03:30:23;14.40;99.90
6256;DHT22;3161;48.794;9.784;2022-07-01T03:32:51;14.40;99.90
6256;DHT22;3161;48.794;9.784;2022-07-01T03:35:19;14.40;99.90
6256;DHT22;3161;48.794;9.784;2022-07-01T03:38:04;14.50;99.90
6256;DHT22;3161;48.794;9.784;2022-07-01T03:40:32;14.50;99.90
6256;DHT22;3161;48.794;9.784;2022-07-01T03:43:00;14.50;99.90
6256;DHT22;3161;48.794;9.784;2022-07-01T03:45:28;14.50;99.90
6256;DHT22;3161;48.794;9.784;2022-07-01T03:47:56;14.60;99.90
6256;DHT22;3161;48.794;9.784;2022-07-01T03:50:25;14.50;99.90
6256;DHT22;3161;48.794;9.784;2022-07-01T03:52:52;14.50;99.90
6256;DHT22;3161;48.794;9.784;2022-07-01T03:55:38;14.50;99.90
6256;DHT22;3161;48.794;9.784;2022-07-01T03:58:06;14.40;99.90
6256;DHT22;3161;48.794;9.784;2022-07-01T04:00:35;14.40;99.90
6256;DHT22;3161;48.794;9.784;2022-07-01T04:03:04;14.40;99.90
6256;DHT22;3161;48.794;9.784;2022-07-01T04:05:33;14.30;99.90
6256;DHT22;3161;48.794;9.784;2022-07-01T04:08:03;14.30;99.90
6256;DHT22;3161;48.794;9.784;2022-07-01T04:10:32;14.40;99.90
6256;DHT22;3161;48.794;9.784;2022-07-01T04:13:01;14.40;99.90
6256;DHT22;3161;48.794;9.784;2022-07-01T04:15:29;14.40;99.90
6256;DHT22;3161;48.794;9.784;2022-07-01T04:17:56;14.40;99.90
6256;DHT22;3161;48.794;9.784;2022-07-01T04:20:24;14.40;99.90
6256;DHT22;3161;48.794;9.784;2022-07-01T04:22:52;14.40;99.90
6256;DHT22;3161;48.794;9.784;2022-07-01T04:25:19;14.40;99.90
6256;DHT22;3161;48.794;9.784;2022-07-01T04:27:47;14.40;99.90
6256;DHT22;3161;48.794;9.784;2022-07-01T04:30:14;14.50;99.90
6256;DHT22;3161;48.794;9.784;2022-07-01T04:32:42;14.50;99.90
6256;DHT22;3161;48.794;9.784;2022-07-01T04:35:09;14.50;99.90
6256;DHT22;3161;48.794;9.784;2022-07-01T04:37:38;14.60;99.90
6256;DHT22;3161;48.794;9.784;2022-07-01T04:40:07;14.60;99.90
6256;DHT22;3161;48.794;9.784;2022-07-01T04:42:35;14.60;99.90
6256;DHT22;3161;48.794;9.784;2022-07-01T04:45:02;14.70;99.90
6256;DHT22;3161;48.794;9.784;2022-07-01T04:47:30;14.70;99.90
6256;DHT22;3161;48.794;9.784;2022-07-01T04:49:58;14.70;99.90
6256;DHT22;3161;48.794;9.784;2022-07-01T04:52:27;14.70;99.90
6256;DHT22;3161;48.794;9.784;2022-07-01T04:54:55;14.70;99.90
6256;DHT22;3161;48.794;9.784;2022-07-01T04:57:22;14.70;99.90
6256;DHT22;3161;48.794;9.784;2022-07-01T04:59:50;14.70;99.90
6256;DHT22;3161;48.794;9.784;2022-07-01T05:02:18;14.60;99.90
6256;DHT22;3161;48.794;9.784;2022-07-01T05:04:45;14.60;99.90
6256;DHT22;3161;48.794;9.784;2022-07-01T05:07:13;14.70;99.90
6256;DHT22;3161;48.794;9.784;2022-07-01T05:09:57;14.70;99.90
6256;DHT22;3161;48.794;9.784;2022-07-01T05:12:28;14.70;99.90
6256;DHT22;3161;48.794;9.784;2022-07-01T05:14:55;14.80;99.90
6256;DHT22;3161;48.794;9.784;2022-07-01T05:17:23;14.80;99.90
6256;DHT22;3161;48.794;9.784;2022-07-01T05:19:52;14.80;99.90
6256;DHT22;3161;48.794;9.784;2022-07-01T05:22:37;14.80;99.90
6256;DHT22;3161;48.794;9.784;2022-07-01T05:25:05;14.80;99.90
6256;DHT22;3161;48.794;9.784;2022-07-01T05:27:33;14.80;99.90
6256;DHT22;3161;48.794;9.784;2022-07-01T05:30:01;14.90;99.90
6256;DHT22;3161;48.794;9.784;2022-07-01T05:32:29;14.90;99.90
6256;DHT22;3161;48.794;9.784;2022-07-01T05:34:57;14.90;99.90
6256;DHT22;3161;48.794;9.784;2022-07-01T05:37:24;14.90;99.90
6256;DHT22;3161;48.794;9.784;2022-07-01T05:39:52;15.00;99.90
6256;DHT22;3161;48.794;9.784;2022-07-01T05:42:19;15.00;99.90
6256;DHT22;3161;48.794;9.784;2022-07-01T05:44:47;15.00;99.90
6256;DHT22;3161;48.794;9.784;2022-07-01T05:47:14;15.00;99.90
6256;DHT22;3161;48.794;9.784;2022-07-01T05:49:42;15.00;99.90
6256;DHT22;3161;48.794;9.784;2022-07-01T05:52:09;15.00;99.90
6256;DHT22;3161;48.794;9.784;2022-07-01T05:54:37;15.10;99.90
6256;DHT22;3161;48.794;9.784;2022-07-01T05:57:05;15.10;99.90
6256;DHT22;3161;48.794;9.784;2022-07-01T05:59:32;15.10;99.90
6256;DHT22;3161;48.794;9.784;2022-07-01T06:02:00;15.10;99.90
6256;DHT22;3161;48.794;9.784;2022-07-01T06:04:27;15.10;99.90
6256;DHT22;3161;48.794;9.784;2022-07-01T06:06:55;15.20;99.90
6256;DHT22;3161;48.794;9.784;2022-07-01T06:09:22;15.20;99.90
6256;DHT22;3161;48.794;9.784;2022-07-01T06:11:50;15.20;99.90
6256;DHT22;3161;48.794;9.784;2022-07-01T06:14:18;15.20;99.90
6256;DHT22;3161;48.794;9.784;2022-07-01T06:16:45;15.20;99.90
6256;DHT22;3161;48.794;9.784;2022-07-01T06:19:13;15.20;99.90
6256;DHT22;3161;48.794;9.784;2022-07-01T06:21:40;15.20;99.90
6256;DHT22;3161;48.794;9.784;2022-07-01T06:24:08;15.20;99.90
6256;DHT22;3161;48.794;9.784;2022-07-01T06:26:35;15.20;99.90
6256;DHT22;3161;48.794;9.784;2022-07-01T06:29:03;15.20;99.90
6256;DHT22;3161;48.794;9.784;2022-07-01T06:31:31;15.20;99.90
6256;DHT22;3161;48.794;9.784;2022-07-01T06:34:00;15.20;99.90
6256;DHT22;3161;48.794;9.784;2022-07-01T06:36:28;15.20;99.90
6256;DHT22;3161;48.794;9.784;2022-07-01T06:38:56;15.20;99.90
6256;DHT22;3161;48.794;9.784;2022-07-01T06:41:23;15.10;99.90
6256;DHT22;3161;48.794;9.784;2022-07-01T06:43:54;15.10;99.90
6256;DHT22;3161;48.794;9.784;2022-07-01T06:46:22;15.00;99.90
6256;DHT22;3161;48.794;9.784;2022-07-01T06:48:50;15.00;99.90
6256;DHT22;3161;48.794;9.784;2022-07-01T06:51:18;15.00;99.90
6256;DHT22;3161;48.794;9.784;2022-07-01T06:53:46;15.10;99.90
6256;DHT22;3161;48.794;9.784;2022-07-01T06:56:14;15.10;99.90
6256;DHT22;3161;48.794;9.784;2022-07-01T06:58:41;15.10;99.90
6256;DHT22;3161;48.794;9.784;2022-07-01T07:01:10;15.10;99.90
6256;DHT22;3161;48.794;9.784;2022-07-01T07:03:40;15.10;99.90
6256;DHT22;3161;48.794;9.784;2022-07-01T07:06:07;15.10;99.90
6256;DHT22;3161;48.794;9.784;2022-07-01T07:08:35;15.10;99.90
6256;DHT22;3161;48.794;9.784;2022-07-01T07:11:02;15.00;99.90
6256;DHT22;3161;48.794;9.784;2022-07-01T07:13:30;15.00;99.90
6256;DHT22;3161;48.794;9.784;2022-07-01T07:15:58;15.00;99.90
6256;DHT22;3161;48.794;9.784;2022-07-01T07:18:26;15.00;99.90
6256;DHT22;3161;48.794;9.784;2022-07-01T07:20:53;14.90;99.90
6256;DHT22;3161;48.794;9.784;2022-07-01T07:23:21;14.90;99.90
6256;DHT22;3161;48.794;9.784;2022-07-01T07:25:49;14.90;99.90
6256;DHT22;3161;48.794;9.784;2022-07-01T07:28:16;14.90;99.90
6256;DHT22;3161;48.794;9.784;2022-07-01T07:30:44;14.90;99.90
6256;DHT22;3161;48.794;9.784;2022-07-01T07:33:11;14.90;99.90
6256;DHT22;3161;48.794;9.784;2022-07-01T07:35:39;14.90;99.90
6256;DHT22;3161;48.794;9.784;2022-07-01T07:38:07;15.00;99.90
6256;DHT22;3161;48.794;9.784;2022-07-01T07:40:35;15.00;99.90
6256;DHT22;3161;48.794;9.784;2022-07-01T07:43:03;14.90;99.90
6256;DHT22;3161;48.794;9.784;2022-07-01T07:45:32;14.90;99.90
6256;DHT22;3161;48.794;9.784;2022-07-01T07:48:00;14.90;99.90
6256;DHT22;3161;48.794;9.784;2022-07-01T07:50:29;14.90;99.90
6256;DHT22;3161;48.794;9.784;2022-07-01T07:52:58;14.80;99.90
6256;DHT22;3161;48.794;9.784;2022-07-01T07:55:25;14.80;99.90
6256;DHT22;3161;48.794;9.784;2022-07-01T07:57:54;14.90;99.90
6256;DHT22;3161;48.794;9.784;2022-07-01T08:00:22;14.90;99.90
6256;DHT22;3161;48.794;9.784;2022-07-01T08:02:50;15.00;99.90
6256;DHT22;3161;48.794;9.784;2022-07-01T08:05:17;15.00;99.90
6256;DHT22;3161;48.794;9.784;2022-07-01T08:07:45;15.00;99.90
6256;DHT22;3161;48.794;9.784;2022-07-01T08:10:13;15.00;99.90
6256;DHT22;3161;48.794;9.784;2022-07-01T08:12:51;15.00;99.90
6256;DHT22;3161;48.794;9.784;2022-07-01T08:15:15;14.90;99.90
6256;DHT22;3161;48.794;9.784;2022-07-01T08:17:47;15.00;99.90
6256;DHT22;3161;48.794;9.784;2022-07-01T08:20:17;15.00;99.90
6256;DHT22;3161;48.794;9.784;2022-07-01T08:22:45;15.00;99.90
6256;DHT22;3161;48.794;9.784;2022-07-01T08:25:12;15.00;99.90
6256;DHT22;3161;48.794;9.784;2022-07-01T08:27:40;14.90;99.90
6256;DHT22;3161;48.794;9.784;2022-07-01T08:30:10;15.00;99.90
6256;DHT22;3161;48.794;9.784;2022-07-01T08:32:38;15.10;99.90
6256;DHT22;3161;48.794;9.784;2022-07-01T08:35:06;15.10;99.90
6256;DHT22;3161;48.794;9.784;2022-07-01T08:37:34;15.10;99.90
6256;DHT22;3161;48.794;9.784;2022-07-01T08:40:02;15.20;99.90
6256;DHT22;3161;48.794;9.784;2022-07-01T08:42:30;15.30;99.90
6256;DHT22;3161;48.794;9.784;2022-07-01T08:44:57;15.30;99.90
6256;DHT22;3161;48.794;9.784;2022-07-01T08:47:25;15.40;99.90
6256;DHT22;3161;48.794;9.784;2022-07-01T08:49:52;15.40;99.90
6256;DHT22;3161;48.794;9.784;2022-07-01T08:52:20;15.50;99.90
6256;DHT22;3161;48.794;9.784;2022-07-01T08:54:48;15.50;99.90
6256;DHT22;3161;48.794;9.784;2022-07-01T08:57:21;15.50;99.90
6256;DHT22;3161;48.794;9.784;2022-07-01T09:00:00;15.60;99.90
6256;DHT22;3161;48.794;9.784;2022-07-01T09:02:51;15.50;99.90
6256;DHT22;3161;48.794;9.784;2022-07-01T09:05:05;15.50;99.90
6256;DHT22;3161;48.794;9.784;2022-07-01T09:07:33;15.50;99.90
6256;DHT22;3161;48.794;9.784;2022-07-01T09:10:12;15.50;99.90
6256;DHT22;3161;48.794;9.784;2022-07-01T09:12:41;15.50;99.90
6256;DHT22;3161;48.794;9.784;2022-07-01T09:15:22;15.50;99.90
6256;DHT22;3161;48.794;9.784;2022-07-01T09:18:14;15.50;99.90
6256;DHT22;3161;48.794;9.784;2022-07-01T09:20:45;15.60;99.90
6256;DHT22;3161;48.794;9.784;2022-07-01T09:23:11;15.60;99.90
6256;DHT22;3161;48.794;9.784;2022-07-01T09:25:50;15.60;99.90
6256;DHT22;3161;48.794;9.784;2022-07-01T09:28:20;15.60;99.90
6256;DHT22;3161;48.794;9.784;2022-07-01T09:30:50;15.60;99.90
6256;DHT22;3161;48.794;9.784;2022-07-01T09:33:21;15.70;99.90
6256;DHT22;3161;48.794;9.784;2022-07-01T09:35:50;15.60;99.90
6256;DHT22;3161;48.794;9.784;2022-07-01T09:38:21;15.60;99.90
6256;DHT22;3161;48.794;9.784;2022-07-01T09:40:57;15.50;99.90
6256;DHT22;3161;48.794;9.784;2022-07-01T09:46:06;15.50;99.90
6256;DHT22;3161;48.794;9.784;2022-07-01T09:51:10;15.40;99.90
6256;DHT22;3161;48.794;9.784;2022-07-01T09:53:38;15.40;99.90
6256;DHT22;3161;48.794;9.784;2022-07-01T09:56:06;15.30;99.90
6256;DHT22;3161;48.794;9.784;2022-07-01T09:58:34;15.30;99.90
6256;DHT22;3161;48.794;9.784;2022-07-01T10:01:03;15.30;99.90
6256;DHT22;3161;48.794;9.784;2022-07-01T10:03:32;15.20;99.90
6256;DHT22;3161;48.794;9.784;2022-07-01T10:13:59;15.20;99.90
6256;DHT22;3161;48.794;9.784;2022-07-01T10:16:27;15.10;99.90
6256;DHT22;3161;48.794;9.784;2022-07-01T10:18:55;15.10;99.90
6256;DHT22;3161;48.794;9.784;2022-07-01T10:21:28;15.00;99.90
6256;DHT22;3161;48.794;9.784;2022-07-01T10:24:13;15.00;99.90
6256;DHT22;3161;48.794;9.784;2022-07-01T10:26:42;14.90;99.90
6256;DHT22;3161;48.794;9.784;2022-07-01T10:29:29;14.80;99.90
6256;DHT22;3161;48.794;9.784;2022-07-01T10:32:08;14.80;99.90
6256;DHT22;3161;48.794;9.784;2022-07-01T10:34:41;14.80;99.90
6256;DHT22;3161;48.794;9.784;2022-07-01T10:37:10;14.80;99.90
6256;DHT22;3161;48.794;9.784;2022-07-01T10:39:58;14.80;99.90
6256;DHT22;3161;48.794;9.784;2022-07-01T10:42:31;14.80;99.90
6256;DHT22;3161;48.794;9.784;2022-07-01T10:45:07;14.80;99.90
6256;DHT22;3161;48.794;9.784;2022-07-01T10:47:37;14.80;99.90
6256;DHT22;3161;48.794;9.784;2022-07-01T10:50:10;14.80;99.90
6256;DHT22;3161;48.794;9.784;2022-07-01T10:52:38;14.80;99.90
6256;DHT22;3161;48.794;9.784;2022-07-01T10:55:09;14.80;99.90
6256;DHT22;3161;48.794;9.784;2022-07-01T10:57:39;14.80;99.90
6256;DHT22;3161;48.794;9.784;2022-07-01T11:02:38;14.80;99.90
6256;DHT22;3161;48.794;9.784;2022-07-01T11:08:07;14.90;99.90
6256;DHT22;3161;48.794;9.784;2022-07-01T11:10:35;14.90;99.90
6256;DHT22;3161;48.794;9.784;2022-07-01T11:13:03;14.90;99.90
6256;DHT22;3161;48.794;9.784;2022-07-01T11:15:31;14.90;99.90
6256;DHT22;3161;48.794;9.784;2022-07-01T11:18:00;15.00;99.90
6256;DHT22;3161;48.794;9.784;2022-07-01T11:20:30;15.00;99.90
6256;DHT22;3161;48.794;9.784;2022-07-01T11:22:58;15.00;99.90
6256;DHT22;3161;48.794;9.784;2022-07-01T11:25:26;15.00;99.90
6256;DHT22;3161;48.794;9.784;2022-07-01T11:27:54;15.10;99.90
6256;DHT22;3161;48.794;9.784;2022-07-01T11:30:23;15.10;99.90
6256;DHT22;3161;48.794;9.784;2022-07-01T11:32:56;15.20;99.90
6256;DHT22;3161;48.794;9.784;2022-07-01T11:35:26;15.20;99.90
6256;DHT22;3161;48.794;9.784;2022-07-01T11:38:17;15.30;99.90
6256;DHT22;3161;48.794;9.784;2022-07-01T11:41:06;15.30;99.90
6256;DHT22;3161;48.794;9.784;2022-07-01T11:43:38;15.30;99.90
6256;DHT22;3161;48.794;9.784;2022-07-01T11:46:07;15.40;99.90
6256;DHT22;3161;48.794;9.784;2022-07-01T11:48:40;15.40;99.90
6256;DHT22;3161;48.794;9.784;2022-07-01T11:51:14;15.40;99.90
6256;DHT22;3161;48.794;9.784;2022-07-01T11:53:46;15.40;99.90
6256;DHT22;3161;48.794;9.784;2022-07-01T11:56:28;15.40;99.90
6256;DHT22;3161;48.794;9.784;2022-07-01T11:58:57;15.50;99.90
6256;DHT22;3161;48.794;9.784;2022-07-01T12:01:36;15.50;99.90
6256;DHT22;3161;48.794;9.784;2022-07-01T12:04:07;15.60;99.90
6256;DHT22;3161;48.794;9.784;2022-07-01T12:06:36;15.60;99.90
6256;DHT22;3161;48.794;9.784;2022-07-01T12:09:05;15.60;99.90
6256;DHT22;3161;48.794;9.784;2022-07-01T12:11:33;15.70;99.90
6256;DHT22;3161;48.794;9.784;2022-07-01T12:14:01;15.70;99.90
6256;DHT22;3161;48.794;9.784;2022-07-01T12:16:37;15.80;99.90
6256;DHT22;3161;48.794;9.784;2022-07-01T12:19:01;16.00;99.90
6256;DHT22;3161;48.794;9.784;2022-07-01T12:21:30;16.20;99.90
6256;DHT22;3161;48.794;9.784;2022-07-01T12:24:09;16.50;99.90
6256;DHT22;3161;48.794;9.784;2022-07-01T12:32:12;16.90;99.90
6256;DHT22;3161;48.794;9.784;2022-07-01T12:34:45;16.80;99.90
6256;DHT22;3161;48.794;9.784;2022-07-01T12:37:16;16.80;99.90
6256;DHT22;3161;48.794;9.784;2022-07-01T12:40:02;16.80;99.90
6256;DHT22;3161;48.794;9.784;2022-07-01T12:42:40;16.80;99.90
6256;DHT22;3161;48.794;9.784;2022-07-01T12:45:09;16.70;99.90
6256;DHT22;3161;48.794;9.784;2022-07-01T12:47:39;16.80;99.90
6256;DHT22;3161;48.794;9.784;2022-07-01T12:55:41;16.70;99.90
6256;DHT22;3161;48.794;9.784;2022-07-01T12:58:16;16.70;99.90
6256;DHT22;3161;48.794;9.784;2022-07-01T13:00:47;16.70;99.90
6256;DHT22;3161;48.794;9.784;2022-07-01T13:03:17;16.70;99.90
6256;DHT22;3161;48.794;9.784;2022-07-01T13:05:43;16.80;99.90
6256;DHT22;3161;48.794;9.784;2022-07-01T13:08:11;16.80;99.90
6256;DHT22;3161;48.794;9.784;2022-07-01T13:10:39;16.80;99.90
6256;DHT22;3161;48.794;9.784;2022-07-01T13:13:07;16.80;99.90
6256;DHT22;3161;48.794;9.784;2022-07-01T13:15:34;16.90;99.90
6256;DHT22;3161;48.794;9.784;2022-07-01T13:18:03;17.10;99.90
6256;DHT22;3161;48.794;9.784;2022-07-01T13:20:31;17.70;99.90
6256;DHT22;3161;48.794;9.784;2022-07-01T13:22:59;19.30;99.90
6256;DHT22;3161;48.794;9.784;2022-07-01T13:25:27;21.40;99.90
6256;DHT22;3161;48.794;9.784;2022-07-01T13:27:54;23.40;99.90
6256;DHT22;3161;48.794;9.784;2022-07-01T13:30:22;24.40;99.90
6256;DHT22;3161;48.794;9.784;2022-07-01T13:32:50;24.60;99.90
6256;DHT22;3161;48.794;9.784;2022-07-01T13:35:21;24.70;99.90
6256;DHT22;3161;48.794;9.784;2022-07-01T13:37:50;24.60;99.90
6256;DHT22;3161;48.794;9.784;2022-07-01T13:40:19;24.20;99.90
6256;DHT22;3161;48.794;9.784;2022-07-01T13:42:48;24.10;99.90
6256;DHT22;3161;48.794;9.784;2022-07-01T13:45:15;23.90;99.90
6256;DHT22;3161;48.794;9.784;2022-07-01T13:47:43;24.00;99.90
6256;DHT22;3161;48.794;9.784;2022-07-01T13:50:10;24.00;99.90
6256;DHT22;3161;48.794;9.784;2022-07-01T13:52:39;23.80;99.90
6256;DHT22;3161;48.794;9.784;2022-07-01T13:55:07;23.30;99.90
6256;DHT22;3161;48.794;9.784;2022-07-01T13:57:35;22.70;99.90
6256;DHT22;3161;48.794;9.784;2022-07-01T14:00:03;22.40;99.90
6256;DHT22;3161;48.794;9.784;2022-07-01T14:02:31;22.30;99.90
6256;DHT22;3161;48.794;9.784;2022-07-01T14:04:59;22.20;99.90
6256;DHT22;3161;48.794;9.784;2022-07-01T14:07:26;22.10;99.90
6256;DHT22;3161;48.794;9.784;2022-07-01T14:09:54;21.70;99.90
6256;DHT22;3161;48.794;9.784;2022-07-01T14:12:21;21.50;99.90
6256;DHT22;3161;48.794;9.784;2022-07-01T14:14:49;21.20;99.90
6256;DHT22;3161;48.794;9.784;2022-07-01T14:17:17;21.00;99.90
6256;DHT22;3161;48.794;9.784;2022-07-01T14:19:44;20.80;99.90
6256;DHT22;3161;48.794;9.784;2022-07-01T14:22:12;20.70;99.90
6256;DHT22;3161;48.794;9.784;2022-07-01T14:24:40;20.50;99.90
6256;DHT22;3161;48.794;9.784;2022-07-01T14:27:07;20.40;99.90
6256;DHT22;3161;48.794;9.784;2022-07-01T14:29:35;20.20;99.90
6256;DHT22;3161;48.794;9.784;2022-07-01T14:32:03;20.20;99.90
6256;DHT22;3161;48.794;9.784;2022-07-01T14:34:31;20.10;99.90
6256;DHT22;3161;48.794;9.784;2022-07-01T14:36:59;20.10;99.90
6256;DHT22;3161;48.794;9.784;2022-07-01T14:39:26;19.80;99.90
6256;DHT22;3161;48.794;9.784;2022-07-01T14:41:54;19.70;99.90
6256;DHT22;3161;48.794;9.784;2022-07-01T14:44:22;19.70;99.90
6256;DHT22;3161;48.794;9.784;2022-07-01T14:46:49;19.80;99.90
6256;DHT22;3161;48.794;9.784;2022-07-01T14:49:18;19.80;99.90
6256;DHT22;3161;48.794;9.784;2022-07-01T14:51:45;20.00;99.90
6256;DHT22;3161;48.794;9.784;2022-07-01T14:54:13;20.10;99.90
6256;DHT22;3161;48.794;9.784;2022-07-01T14:56:41;20.30;99.90
6256;DHT22;3161;48.794;9.784;2022-07-01T14:59:09;20.40;99.90
6256;DHT22;3161;48.794;9.784;2022-07-01T15:01:37;20.50;99.90
6256;DHT22;3161;48.794;9.784;2022-07-01T15:04:05;20.40;99.90
6256;DHT22;3161;48.794;9.784;2022-07-01T15:06:32;20.50;99.90
6256;DHT22;3161;48.794;9.784;2022-07-01T15:09:00;20.50;99.90
6256;DHT22;3161;48.794;9.784;2022-07-01T15:11:28;20.50;99.90
6256;DHT22;3161;48.794;9.784;2022-07-01T15:13:55;20.60;99.90
6256;DHT22;3161;48.794;9.784;2022-07-01T15:16:23;20.50;99.90
6256;DHT22;3161;48.794;9.784;2022-07-01T15:18:52;20.50;99.90
6256;DHT22;3161;48.794;9.784;2022-07-01T15:21:19;20.30;99.90
6256;DHT22;3161;48.794;9.784;2022-07-01T15:23:47;20.10;99.90
6256;DHT22;3161;48.794;9.784;2022-07-01T15:26:14;20.10;99.90
6256;DHT22;3161;48.794;9.784;2022-07-01T15:28:42;20.00;99.90
6256;DHT22;3161;48.794;9.784;2022-07-01T15:31:10;20.00;99.90
6256;DHT22;3161;48.794;9.784;2022-07-01T15:33:37;20.00;99.90
6256;DHT22;3161;48.794;9.784;2022-07-01T15:36:05;20.10;99.90
6256;DHT22;3161;48.794;9.784;2022-07-01T15:38:33;20.10;99.90
6256;DHT22;3161;48.794;9.784;2022-07-01T15:41:00;20.10;99.90
6256;DHT22;3161;48.794;9.784;2022-07-01T15:43:28;20.00;99.90
6256;DHT22;3161;48.794;9.784;2022-07-01T15:45:57;19.90;99.90
6256;DHT22;3161;48.794;9.784;2022-07-01T15:48:24;19.80;99.90
6256;DHT22;3161;48.794;9.784;2022-07-01T15:50:52;19.80;99.90
6256;DHT22;3161;48.794;9.784;2022-07-01T15:53:21;19.70;99.90
6256;DHT22;3161;48.794;9.784;2022-07-01T15:55:49;19.80;99.90
6256;DHT22;3161;48.794;9.784;2022-07-01T15:58:18;19.80;99.90
6256;DHT22;3161;48.794;9.784;2022-07-01T16:00:47;19.80;99.90
6256;DHT22;3161;48.794;9.784;2022-07-01T16:03:16;19.80;99.90
6256;DHT22;3161;48.794;9.784;2022-07-01T16:05:46;19.80;99.90
6256;DHT22;3161;48.794;9.784;2022-07-01T16:08:32;19.80;99.90
6256;DHT22;3161;48.794;9.784;2022-07-01T16:11:10;19.70;99.90
6256;DHT22;3161;48.794;9.784;2022-07-01T16:13:46;19.70;99.90
6256;DHT22;3161;48.794;9.784;2022-07-01T16:16:09;19.70;99.90
6256;DHT22;3161;48.794;9.784;2022-07-01T16:18:37;19.80;99.90
6256;DHT22;3161;48.794;9.784;2022-07-01T16:21:05;19.70;99.90
6256;DHT22;3161;48.794;9.784;2022-07-01T16:23:35;19.80;99.90
6256;DHT22;3161;48.794;9.784;2022-07-01T16:26:03;19.80;99.90
6256;DHT22;3161;48.794;9.784;2022-07-01T16:28:31;19.80;99.90
6256;DHT22;3161;48.794;9.784;2022-07-01T16:31:00;19.80;99.90
6256;DHT22;3161;48.794;9.784;2022-07-01T16:33:28;19.70;99.90
6256;DHT22;3161;48.794;9.784;2022-07-01T16:36:09;19.70;99.90
6256;DHT22;3161;48.794;9.784;2022-07-01T16:38:59;19.70;99.90
6256;DHT22;3161;48.794;9.784;2022-07-01T16:41:24;19.70;99.90
6256;DHT22;3161;48.794;9.784;2022-07-01T16:43:53;19.70;99.90